createdAt,value
2023-02-17T00:00:19.343Z,73822.06
2023-02-17T00:00:54.193Z,73828.06
2023-02-17T00:01:28.560Z,73828.06
2023-02-17T00:02:00.978Z,73828.06
2023-02-17T00:02:35.862Z,73836.03
2023-02-17T00:03:09.665Z,73824.06
2023-02-17T00:03:42.160Z,73828.06
2023-02-17T00:04:17.051Z,73828.06
2023-02-17T00:04:49.283Z,73824.06
2023-02-17T00:05:21.573Z,73832.03
2023-02-17T00:05:56.738Z,73834.03
2023-02-17T00:06:30.674Z,73836.03
2023-02-17T00:07:05.539Z,73828.06
2023-02-17T00:07:38.083Z,73832.03
2023-02-17T00:08:10.357Z,73832.03
2023-02-17T00:08:42.703Z,73824.06
2023-02-17T00:09:17.638Z,73836.03
2023-02-17T00:09:49.901Z,73838.03
2023-02-17T00:10:22.143Z,73832.03
2023-02-17T00:11:00.817Z,73836.03
2023-02-17T00:11:33.555Z,73832.03
2023-02-17T00:12:06.261Z,73832.03
2023-02-17T00:12:41.092Z,73828.06
2023-02-17T00:13:13.338Z,73834.03
2023-02-17T00:13:46.290Z,73822.06
2023-02-17T00:14:21.528Z,73832.03
2023-02-17T00:14:53.774Z,73832.03
2023-02-17T00:15:28.627Z,73830.06
2023-02-17T00:16:04.193Z,73832.03
2023-02-17T00:16:36.787Z,73824.06
2023-02-17T00:17:11.672Z,73824.06
2023-02-17T00:17:43.905Z,73820.06
2023-02-17T00:18:16.142Z,73822.06
2023-02-17T00:18:51.395Z,73824.06
2023-02-17T00:19:25.024Z,73824.06
2023-02-17T00:19:57.599Z,73836.03
2023-02-17T00:20:32.536Z,73824.06
2023-02-17T00:21:15.851Z,73824.06
2023-02-17T00:21:48.112Z,73826.06
2023-02-17T00:22:22.961Z,73824.06
2023-02-17T00:22:55.189Z,73828.06
2023-02-17T00:23:27.417Z,73832.03
2023-02-17T00:24:03.117Z,73828.06
2023-02-17T00:24:38.757Z,73828.06
2023-02-17T00:25:11.006Z,73818.06
2023-02-17T00:25:45.903Z,73820.06
2023-02-17T00:26:19.004Z,73818.06
2023-02-17T00:26:51.758Z,73820.06
2023-02-17T00:27:26.746Z,73820.06
2023-02-17T00:27:58.989Z,73816.06
2023-02-17T00:28:31.464Z,73824.06
2023-02-17T00:29:06.315Z,73822.06
2023-02-17T00:29:38.999Z,73822.06
2023-02-17T00:30:11.871Z,73824.06
2023-02-17T00:30:49.491Z,73824.06
2023-02-17T00:31:23.002Z,73820.06
2023-02-17T00:31:59.481Z,73820.06
2023-02-17T00:32:31.795Z,73824.06
2023-02-17T00:33:04.115Z,73828.06
2023-02-17T00:33:39.258Z,73824.06
2023-02-17T00:34:11.751Z,73818.06
2023-02-17T00:34:44.209Z,73820.06
2023-02-17T00:35:19.268Z,73816.06
2023-02-17T00:35:51.505Z,73820.06
2023-02-17T00:36:24.338Z,73820.06
2023-02-17T00:36:59.790Z,73824.06
2023-02-17T00:37:32.023Z,73820.06
2023-02-17T00:38:04.266Z,73824.06
2023-02-17T00:38:40.235Z,73820.06
2023-02-17T00:39:13.351Z,73820.06
2023-02-17T00:39:45.627Z,73816.06
2023-02-17T00:40:20.810Z,73822.06
2023-02-17T00:40:53.044Z,73818.06
2023-02-17T00:41:26.085Z,73816.06
2023-02-17T00:42:00.944Z,73820.06
2023-02-17T00:42:34.934Z,73816.06
2023-02-17T00:43:07.236Z,73816.06
2023-02-17T00:43:42.176Z,73818.06
2023-02-17T00:44:17.611Z,73816.06
2023-02-17T00:44:50.100Z,73816.06
2023-02-17T00:45:24.972Z,73808.09
2023-02-17T00:45:59.845Z,73808.09
2023-02-17T00:46:32.101Z,73808.09
2023-02-17T00:47:08.073Z,73810.09
2023-02-17T00:47:40.357Z,73804.09
2023-02-17T00:48:12.665Z,73808.09
2023-02-17T00:48:47.900Z,73812.09
2023-02-17T00:49:21.980Z,73808.09
2023-02-17T00:49:54.306Z,73810.09
2023-02-17T00:50:29.161Z,73802.09
2023-02-17T00:51:01.399Z,73808.09
2023-02-17T00:51:36.252Z,73806.09
2023-02-17T00:52:10.103Z,73816.06
2023-02-17T00:52:42.368Z,73806.09
2023-02-17T00:53:17.280Z,73808.09
2023-02-17T00:53:49.834Z,73804.09
2023-02-17T00:54:22.176Z,73810.09
2023-02-17T00:54:57.011Z,73804.09
2023-02-17T00:55:30.244Z,73804.09
2023-02-17T00:56:02.680Z,73804.09
2023-02-17T00:56:37.548Z,73806.09
2023-02-17T00:57:09.829Z,73804.09
2023-02-17T00:57:42.070Z,73804.09
2023-02-17T00:58:16.941Z,73804.09
2023-02-17T00:58:49.218Z,73812.09
2023-02-17T00:59:24.802Z,73806.09
2023-02-17T00:59:57.034Z,73812.09
2023-02-17T01:00:29.292Z,73808.09
2023-02-17T01:01:07.434Z,73808.09
2023-02-17T01:01:39.848Z,73816.06
2023-02-17T01:02:13.213Z,73808.09
2023-02-17T01:02:48.078Z,73818.06
2023-02-17T01:03:22.322Z,73818.06
2023-02-17T01:03:56.954Z,73812.09
2023-02-17T01:04:31.823Z,73812.09
2023-02-17T01:05:04.613Z,73808.09
2023-02-17T01:05:41.478Z,73816.06
2023-02-17T01:06:27.365Z,73814.06
2023-02-17T01:06:59.618Z,73816.06
2023-02-17T01:07:31.889Z,73814.06
2023-02-17T01:08:06.978Z,73812.09
2023-02-17T01:08:39.210Z,73816.06
2023-02-17T01:09:14.492Z,73814.06
2023-02-17T01:09:49.360Z,73812.09
2023-02-17T01:10:21.868Z,73820.06
2023-02-17T01:10:54.316Z,73816.06
2023-02-17T01:11:31.350Z,73818.06
2023-02-17T01:12:04.177Z,73816.06
2023-02-17T01:12:37.220Z,73822.06
2023-02-17T01:13:12.750Z,73816.06
2023-02-17T01:13:45.005Z,73820.06
2023-02-17T01:14:17.283Z,73816.06
2023-02-17T01:14:52.207Z,73816.06
2023-02-17T01:15:24.479Z,73824.06
2023-02-17T01:15:59.374Z,73818.06
2023-02-17T01:16:35.552Z,73820.06
2023-02-17T01:17:07.937Z,73820.06
2023-02-17T01:17:42.832Z,73824.06
2023-02-17T01:18:15.734Z,73818.06
2023-02-17T01:18:48.015Z,73824.06
2023-02-17T01:19:22.852Z,73824.06
2023-02-17T01:19:55.092Z,73824.06
2023-02-17T01:20:27.709Z,73824.06
2023-02-17T01:21:02.557Z,73816.06
2023-02-17T01:21:34.905Z,73820.06
2023-02-17T01:22:07.352Z,73820.06
2023-02-17T01:22:42.548Z,73822.06
2023-02-17T01:23:15.315Z,73828.06
2023-02-17T01:23:49.296Z,73824.06
2023-02-17T01:24:21.616Z,73828.06
2023-02-17T01:24:56.462Z,73822.06
2023-02-17T01:25:28.966Z,73824.06
2023-02-17T01:26:01.383Z,73820.06
2023-02-17T01:26:39.268Z,73820.06
2023-02-17T01:27:11.573Z,73828.06
2023-02-17T01:27:43.804Z,73816.06
2023-02-17T01:28:20.951Z,73822.06
2023-02-17T01:28:54.093Z,73824.06
2023-02-17T01:29:26.324Z,73820.06
2023-02-17T01:30:01.288Z,73820.06
2023-02-17T01:30:33.844Z,73814.06
2023-02-17T01:31:08.197Z,73832.03
2023-02-17T01:31:45.721Z,73824.06
2023-02-17T01:32:18.113Z,73828.06
2023-02-17T01:32:50.375Z,73824.06
2023-02-17T01:33:25.262Z,73820.06
2023-02-17T01:34:00.353Z,73828.06
2023-02-17T01:34:32.699Z,73824.06
2023-02-17T01:35:08.149Z,73816.06
2023-02-17T01:35:41.111Z,73812.09
2023-02-17T01:36:15.220Z,73828.06
2023-02-17T01:36:50.163Z,73818.06
2023-02-17T01:37:22.476Z,73820.06
2023-02-17T01:37:54.731Z,73816.06
2023-02-17T01:38:31.523Z,73816.06
2023-02-17T01:39:04.043Z,73814.06
2023-02-17T01:39:36.550Z,73820.06
2023-02-17T01:40:12.377Z,73816.06
2023-02-17T01:40:48.216Z,73816.06
2023-02-17T01:41:22.484Z,73820.06
2023-02-17T01:41:57.364Z,73820.06
2023-02-17T01:42:29.684Z,73816.06
2023-02-17T01:43:02.071Z,73816.06
2023-02-17T01:43:37.247Z,73824.06
2023-02-17T01:44:14.094Z,73818.06
2023-02-17T01:45:16.318Z,73824.06
2023-02-17T01:45:54.455Z,73818.06
2023-02-17T01:46:26.762Z,73826.06
2023-02-17T01:47:01.616Z,73820.06
2023-02-17T01:47:36.651Z,73824.06
2023-02-17T01:48:11.597Z,73818.06
2023-02-17T01:48:45.179Z,73818.06
2023-02-17T01:49:24.678Z,73814.06
2023-02-17T01:49:56.980Z,73816.06
2023-02-17T01:50:32.782Z,73812.09
2023-02-17T01:51:09.210Z,73818.06
2023-02-17T01:51:41.801Z,73820.06
2023-02-17T01:52:18.787Z,73816.06
2023-02-17T01:52:54.366Z,73816.06
2023-02-17T01:53:35.491Z,73804.09
2023-02-17T01:54:13.143Z,73808.09
2023-02-17T01:54:50.762Z,73810.09
2023-02-17T01:55:24.325Z,73810.09
2023-02-17T01:55:57.356Z,73812.09
2023-02-17T01:56:34.108Z,73806.09
2023-02-17T01:57:06.524Z,73806.09
2023-02-17T01:57:40.091Z,73804.09
2023-02-17T01:58:17.248Z,73804.09
2023-02-17T01:58:52.291Z,73804.09
2023-02-17T01:59:25.658Z,73804.09
2023-02-17T02:00:00.661Z,73808.09
2023-02-17T02:00:34.055Z,73800.09
2023-02-17T02:01:06.685Z,73808.09
2023-02-17T02:01:43.062Z,73808.09
2023-02-17T02:02:19.803Z,73800.09
2023-02-17T02:02:52.323Z,73808.09
2023-02-17T02:03:28.159Z,73806.09
2023-02-17T02:04:04.236Z,73812.09
2023-02-17T02:04:41.212Z,73802.09
2023-02-17T02:05:15.003Z,73804.09
2023-02-17T02:05:47.471Z,73806.09
2023-02-17T02:06:27.147Z,73804.09
2023-02-17T02:06:59.785Z,73808.09
2023-02-17T02:07:34.444Z,73804.09
2023-02-17T02:08:10.237Z,73802.09
2023-02-17T02:08:48.460Z,73804.09
2023-02-17T02:09:24.971Z,73804.09
2023-02-17T02:09:58.822Z,73802.09
2023-02-17T02:10:32.519Z,73802.09
2023-02-17T02:11:07.576Z,73806.09
2023-02-17T02:11:39.836Z,73796.09
2023-02-17T02:12:17.976Z,73792.13
2023-02-17T02:12:53.413Z,73800.09
2023-02-17T02:13:25.851Z,73800.09
2023-02-17T02:13:58.590Z,73790.13
2023-02-17T02:14:33.470Z,73798.09
2023-02-17T02:15:08.904Z,73800.09
2023-02-17T02:15:44.160Z,73796.09
2023-02-17T02:16:23.760Z,73798.09
2023-02-17T02:17:03.936Z,73794.13
2023-02-17T02:17:44.757Z,73794.13
2023-02-17T02:18:29.835Z,73798.09
2023-02-17T02:19:07.456Z,73792.13
2023-02-17T02:20:02.552Z,73792.13
2023-02-17T02:20:52.899Z,73796.09
2023-02-17T02:22:06.692Z,73796.09
2023-02-17T02:23:21.096Z,73790.13
2023-02-17T02:24:02.508Z,73794.13
2023-02-17T02:24:43.276Z,73792.13
2023-02-17T02:25:30.896Z,73794.13
2023-02-17T02:26:29.551Z,73792.13
2023-02-17T02:27:34.268Z,73788.13
2023-02-17T02:28:12.813Z,73790.13
2023-02-17T02:28:58.895Z,73792.13
2023-02-17T02:29:48.822Z,73790.13
2023-02-17T02:30:46.290Z,73792.13
2023-02-17T02:31:33.648Z,73792.13
2023-02-17T02:32:23.951Z,73788.13
2023-02-17T02:33:04.534Z,73790.13
2023-02-17T02:33:44.576Z,73788.13
2023-02-17T02:34:21.789Z,73784.13
2023-02-17T02:34:57.323Z,73786.13
2023-02-17T02:35:39.629Z,73780.13
2023-02-17T02:36:15.861Z,73780.13
2023-02-17T02:36:51.352Z,73784.13
2023-02-17T02:37:29.432Z,73780.13
2023-02-17T02:38:06.976Z,73788.13
2023-02-17T02:38:45.171Z,73784.13
2023-02-17T02:39:19.734Z,73788.13
2023-02-17T02:39:53.291Z,73778.13
2023-02-17T02:40:32.712Z,73776.16
2023-02-17T02:41:11.187Z,73782.13
2023-02-17T02:41:49.794Z,73776.16
2023-02-17T02:42:23.848Z,73766.16
2023-02-17T02:42:57.085Z,73772.16
2023-02-17T02:43:33.314Z,73772.16
2023-02-17T02:44:06.297Z,73776.16
2023-02-17T02:44:39.131Z,73772.16
2023-02-17T02:45:14.644Z,73776.16
2023-02-17T02:45:46.913Z,73772.16
2023-02-17T02:46:21.840Z,73766.16
2023-02-17T02:46:58.761Z,73772.16
2023-02-17T02:47:49.776Z,73768.16
2023-02-17T02:48:28.498Z,73768.16
2023-02-17T02:49:02.393Z,73770.16
2023-02-17T02:49:36.141Z,73768.16
2023-02-17T02:50:14.516Z,73774.16
2023-02-17T02:51:06.363Z,73768.16
2023-02-17T02:51:47.449Z,73768.16
2023-02-17T02:52:25.999Z,73774.16
2023-02-17T02:53:10.673Z,73770.16
2023-02-17T02:53:53.308Z,73760.16
2023-02-17T02:54:37.516Z,73768.16
2023-02-17T02:55:12.717Z,73768.16
2023-02-17T02:55:55.703Z,73770.16
2023-02-17T02:56:42.613Z,73764.16
2023-02-17T02:57:21.506Z,73760.16
2023-02-17T02:58:03.997Z,73760.16
2023-02-17T02:58:41.664Z,73766.16
2023-02-17T02:59:26.060Z,73760.16
2023-02-17T03:00:15.652Z,73760.16
2023-02-17T03:00:54.273Z,73760.16
2023-02-17T03:01:31.949Z,73762.16
2023-02-17T03:02:11.430Z,73760.16
2023-02-17T03:02:45.998Z,73760.16
2023-02-17T03:03:26.149Z,73752.19
2023-02-17T03:04:07.985Z,73764.16
2023-02-17T03:04:44.801Z,73760.16
2023-02-17T03:05:24.365Z,73764.16
2023-02-17T03:06:02.581Z,73752.19
2023-02-17T03:06:40.197Z,73766.16
2023-02-17T03:07:21.430Z,73752.19
2023-02-17T03:07:57.176Z,73762.16
2023-02-17T03:08:33.166Z,73758.19
2023-02-17T03:09:10.779Z,73760.16
2023-02-17T03:09:43.134Z,73760.16
2023-02-17T03:10:18.663Z,73754.19
2023-02-17T03:10:55.401Z,73762.16
2023-02-17T03:11:32.555Z,73760.16
2023-02-17T03:12:07.173Z,73756.19
2023-02-17T03:12:42.885Z,73752.19
2023-02-17T03:13:15.449Z,73760.16
2023-02-17T03:13:47.847Z,73758.19
2023-02-17T03:14:24.550Z,73764.16
2023-02-17T03:15:01.987Z,73756.19
2023-02-17T03:15:35.732Z,73760.16
2023-02-17T03:16:13.044Z,73760.16
2023-02-17T03:16:46.263Z,73760.16
2023-02-17T03:17:18.528Z,73760.16
2023-02-17T03:17:59.851Z,73760.16
2023-02-17T03:18:35.491Z,73764.16
2023-02-17T03:19:09.246Z,73760.16
2023-02-17T03:19:45.712Z,73764.16
2023-02-17T03:20:18.164Z,73760.16
2023-02-17T03:20:53.653Z,73760.16
2023-02-17T03:21:31.603Z,73764.16
2023-02-17T03:22:08.290Z,73762.16
2023-02-17T03:22:43.896Z,73760.16
2023-02-17T03:23:18.761Z,73760.16
2023-02-17T03:23:51.001Z,73758.19
2023-02-17T03:24:23.262Z,73758.19
2023-02-17T03:24:55.912Z,73760.16
2023-02-17T03:25:30.793Z,73760.16
2023-02-17T03:26:03.187Z,73764.16
2023-02-17T03:26:35.772Z,73766.16
2023-02-17T03:27:10.811Z,73762.16
2023-02-17T03:27:43.137Z,73762.16
2023-02-17T03:28:15.427Z,73758.19
2023-02-17T03:28:50.401Z,73760.16
2023-02-17T03:29:22.648Z,73764.16
2023-02-17T03:29:55.033Z,73766.16
2023-02-17T03:30:30.842Z,73764.16
2023-02-17T03:31:03.349Z,73768.16
2023-02-17T03:31:36.137Z,73766.16
2023-02-17T03:32:08.505Z,73764.16
2023-02-17T03:32:44.312Z,73768.16
2023-02-17T03:33:16.561Z,73764.16
2023-02-17T03:33:51.408Z,73766.16
2023-02-17T03:34:26.255Z,73764.16
2023-02-17T03:34:58.509Z,73764.16
2023-02-17T03:35:30.811Z,73770.16
2023-02-17T03:36:05.898Z,73774.16
2023-02-17T03:36:38.493Z,73764.16
2023-02-17T03:37:10.758Z,73764.16
2023-02-17T03:37:45.614Z,73762.16
2023-02-17T03:38:18.013Z,73768.16
2023-02-17T03:38:50.386Z,73760.16
2023-02-17T03:39:25.296Z,73768.16
2023-02-17T03:39:57.539Z,73768.16
2023-02-17T03:40:29.952Z,73758.19
2023-02-17T03:41:04.864Z,73764.16
2023-02-17T03:41:37.107Z,73760.16
2023-02-17T03:42:09.392Z,73756.19
2023-02-17T03:42:44.220Z,73768.16
2023-02-17T03:43:17.947Z,73760.16
2023-02-17T03:43:50.422Z,73766.16
2023-02-17T03:44:25.307Z,73758.19
2023-02-17T03:44:57.605Z,73764.16
2023-02-17T03:45:33.026Z,73754.19
2023-02-17T03:46:05.758Z,73760.16
2023-02-17T03:46:39.385Z,73758.19
2023-02-17T03:47:14.240Z,73758.19
2023-02-17T03:47:46.530Z,73762.16
2023-02-17T03:48:18.779Z,73760.16
2023-02-17T03:48:56.220Z,73756.19
2023-02-17T03:49:28.531Z,73760.16
2023-02-17T03:50:00.787Z,73760.16
2023-02-17T03:50:35.646Z,73756.19
2023-02-17T03:51:12.637Z,73756.19
2023-02-17T03:51:44.979Z,73760.16
2023-02-17T03:52:17.237Z,73756.19
2023-02-17T03:52:52.062Z,73756.19
2023-02-17T03:53:24.539Z,73760.16
2023-02-17T03:53:56.802Z,73756.19
2023-02-17T03:54:31.680Z,73752.19
2023-02-17T03:55:04.307Z,73760.16
2023-02-17T03:55:39.165Z,73756.19
2023-02-17T03:56:11.823Z,73762.16
2023-02-17T03:56:44.128Z,73752.19
2023-02-17T03:57:18.976Z,73748.19
2023-02-17T03:57:51.204Z,73752.19
2023-02-17T03:58:23.427Z,73752.19
2023-02-17T03:58:58.331Z,73752.19
2023-02-17T03:59:30.615Z,73756.19
2023-02-17T04:00:03.771Z,73756.19
2023-02-17T04:00:47.771Z,73760.16
2023-02-17T04:01:20.471Z,73752.19
2023-02-17T04:01:52.762Z,73748.19
2023-02-17T04:02:27.655Z,73752.19
2023-02-17T04:03:00.167Z,73750.19
2023-02-17T04:03:32.424Z,73748.19
2023-02-17T04:04:09.937Z,73752.19
2023-02-17T04:04:42.264Z,73758.19
2023-02-17T04:05:14.540Z,73748.19
2023-02-17T04:05:49.364Z,73750.19
2023-02-17T04:06:21.740Z,73756.19
2023-02-17T04:06:54.028Z,73756.19
2023-02-17T04:07:28.905Z,73756.19
2023-02-17T04:08:01.268Z,73760.16
2023-02-17T04:08:33.536Z,73752.19
2023-02-17T04:09:08.375Z,73760.16
2023-02-17T04:09:42.492Z,73758.19
2023-02-17T04:10:14.823Z,73764.16
2023-02-17T04:10:49.742Z,73756.19
2023-02-17T04:11:22.072Z,73756.19
2023-02-17T04:11:54.308Z,73764.16
2023-02-17T04:12:29.244Z,73758.19
2023-02-17T04:13:01.536Z,73756.19
2023-02-17T04:13:34.050Z,73762.16
2023-02-17T04:14:08.875Z,73752.19
2023-02-17T04:14:41.142Z,73756.19
2023-02-17T04:15:13.468Z,73752.19
2023-02-17T04:15:45.802Z,73756.19
2023-02-17T04:16:20.846Z,73756.19
2023-02-17T04:16:53.096Z,73752.19
2023-02-17T04:17:25.454Z,73756.19
2023-02-17T04:18:00.355Z,73756.19
2023-02-17T04:18:32.990Z,73752.19
2023-02-17T04:19:08.912Z,73750.19
2023-02-17T04:19:43.884Z,73760.16
2023-02-17T04:20:16.121Z,73752.19
2023-02-17T04:20:49.468Z,73748.19
2023-02-17T04:21:24.361Z,73756.19
2023-02-17T04:21:56.598Z,73756.19
2023-02-17T04:22:28.843Z,73752.19
2023-02-17T04:23:01.103Z,73756.19
2023-02-17T04:23:37.362Z,73756.19
2023-02-17T04:24:10.181Z,73746.19
2023-02-17T04:24:42.644Z,73748.19
2023-02-17T04:25:17.485Z,73752.19
2023-02-17T04:25:50.217Z,73748.19
2023-02-17T04:26:22.459Z,73752.19
2023-02-17T04:26:57.397Z,73752.19
2023-02-17T04:27:29.628Z,73756.19
2023-02-17T04:28:01.998Z,73750.19
2023-02-17T04:28:38.376Z,73748.19
2023-02-17T04:29:10.676Z,73752.19
2023-02-17T04:29:43.193Z,73744.19
2023-02-17T04:30:18.933Z,73752.19
2023-02-17T04:30:51.836Z,73756.19
2023-02-17T04:31:26.033Z,73754.19
2023-02-17T04:32:01.045Z,73748.19
2023-02-17T04:32:33.640Z,73750.19
2023-02-17T04:33:06.060Z,73748.19
2023-02-17T04:33:40.920Z,73752.19
2023-02-17T04:34:15.760Z,73748.19
2023-02-17T04:34:48.006Z,73748.19
2023-02-17T04:35:22.886Z,73750.19
2023-02-17T04:35:59.727Z,73752.19
2023-02-17T04:36:34.625Z,73748.19
2023-02-17T04:37:07.304Z,73756.19
2023-02-17T04:37:39.524Z,73748.19
2023-02-17T04:38:14.485Z,73748.19
2023-02-17T04:38:46.708Z,73748.19
2023-02-17T04:39:19.235Z,73756.19
2023-02-17T04:39:54.142Z,73748.19
2023-02-17T04:40:26.384Z,73748.19
2023-02-17T04:41:00.112Z,73750.19
2023-02-17T04:41:34.958Z,73750.19
2023-02-17T04:42:07.248Z,73752.19
2023-02-17T04:42:39.661Z,73748.19
2023-02-17T04:43:14.607Z,73750.19
2023-02-17T04:43:46.846Z,73752.19
2023-02-17T04:44:19.200Z,73752.19
2023-02-17T04:44:54.051Z,73748.19
2023-02-17T04:45:26.317Z,73748.19
2023-02-17T04:45:59.000Z,73748.19
2023-02-17T04:46:33.861Z,73752.19
2023-02-17T04:47:06.097Z,73746.19
2023-02-17T04:47:38.628Z,73750.19
2023-02-17T04:48:13.461Z,73756.19
2023-02-17T04:48:45.683Z,73748.19
2023-02-17T04:49:20.497Z,73748.19
2023-02-17T04:49:55.349Z,73746.19
2023-02-17T04:50:27.591Z,73752.19
2023-02-17T04:50:59.915Z,73750.19
2023-02-17T04:51:34.806Z,73750.19
2023-02-17T04:52:07.078Z,73748.19
2023-02-17T04:52:39.331Z,73754.19
2023-02-17T04:53:14.546Z,73752.19
2023-02-17T04:53:46.797Z,73750.19
2023-02-17T04:54:19.068Z,73744.19
2023-02-17T04:54:53.931Z,73748.19
2023-02-17T04:55:26.259Z,73744.19
2023-02-17T04:55:58.488Z,73748.19
2023-02-17T04:56:33.348Z,73744.19
2023-02-17T04:57:05.590Z,73748.19
2023-02-17T04:57:37.941Z,73746.19
2023-02-17T04:58:13.463Z,73746.19
2023-02-17T04:58:45.705Z,73746.19
2023-02-17T04:59:17.935Z,73736.22
2023-02-17T04:59:52.749Z,73744.19
2023-02-17T05:00:25.234Z,73740.22
2023-02-17T05:00:59.275Z,73736.22
2023-02-17T05:01:34.155Z,73742.19
2023-02-17T05:02:06.485Z,73744.19
2023-02-17T05:02:38.773Z,73746.19
2023-02-17T05:03:13.639Z,73746.19
2023-02-17T05:03:45.866Z,73744.19
2023-02-17T05:04:20.926Z,73752.19
2023-02-17T05:04:55.839Z,73740.22
2023-02-17T05:05:28.124Z,73746.19
2023-02-17T05:06:03.302Z,73746.19
2023-02-17T05:06:35.692Z,73744.19
2023-02-17T05:07:07.916Z,73740.22
2023-02-17T05:07:40.142Z,73744.19
2023-02-17T05:08:15.016Z,73746.19
2023-02-17T05:08:48.353Z,73744.19
2023-02-17T05:09:20.780Z,73744.19
2023-02-17T05:09:56.119Z,73740.22
2023-02-17T05:10:28.498Z,73740.22
2023-02-17T05:11:00.984Z,73736.22
2023-02-17T05:11:35.829Z,73740.22
2023-02-17T05:12:08.392Z,73738.22
2023-02-17T05:12:40.650Z,73736.22
2023-02-17T05:13:15.504Z,73732.22
2023-02-17T05:13:47.721Z,73732.22
2023-02-17T05:14:19.970Z,73726.22
2023-02-17T05:14:54.836Z,73736.22
2023-02-17T05:15:27.302Z,73740.22
2023-02-17T05:15:59.619Z,73730.22
2023-02-17T05:16:34.531Z,73724.22
2023-02-17T05:17:06.793Z,73734.22
2023-02-17T05:17:39.034Z,73734.22
2023-02-17T05:18:13.904Z,73738.22
2023-02-17T05:18:46.188Z,73736.22
2023-02-17T05:19:21.019Z,73740.22
2023-02-17T05:19:55.860Z,73742.19
2023-02-17T05:20:28.165Z,73732.22
2023-02-17T05:21:00.399Z,73732.22
2023-02-17T05:21:35.243Z,73736.22
2023-02-17T05:22:07.490Z,73736.22
2023-02-17T05:22:39.748Z,73736.22
2023-02-17T05:23:14.610Z,73734.22
2023-02-17T05:23:46.906Z,73738.22
2023-02-17T05:24:19.174Z,73742.19
2023-02-17T05:24:54.015Z,73730.22
2023-02-17T05:25:26.283Z,73740.22
2023-02-17T05:26:01.155Z,73740.22
2023-02-17T05:26:33.402Z,73734.22
2023-02-17T05:27:05.665Z,73736.22
2023-02-17T05:27:40.533Z,73736.22
2023-02-17T05:28:12.791Z,73736.22
2023-02-17T05:28:45.175Z,73736.22
2023-02-17T05:29:20.049Z,73732.22
2023-02-17T05:29:52.319Z,73732.22
2023-02-17T05:30:27.203Z,73736.22
2023-02-17T05:31:01.067Z,73736.22
2023-02-17T05:31:33.495Z,73734.22
2023-02-17T05:32:08.552Z,73740.22
2023-02-17T05:32:40.837Z,73736.22
2023-02-17T05:33:13.088Z,73734.22
2023-02-17T05:33:47.926Z,73738.22
2023-02-17T05:34:22.747Z,73738.22
2023-02-17T05:34:54.984Z,73738.22
2023-02-17T05:35:30.097Z,73740.22
2023-02-17T05:36:05.240Z,73742.19
2023-02-17T05:36:37.675Z,73744.19
2023-02-17T05:37:12.645Z,73738.22
2023-02-17T05:37:46.074Z,73738.22
2023-02-17T05:38:20.901Z,73736.22
2023-02-17T05:38:53.243Z,73740.22
2023-02-17T05:39:25.468Z,73738.22
2023-02-17T05:40:00.316Z,73750.19
2023-02-17T05:40:32.611Z,73736.22
2023-02-17T05:41:05.282Z,73736.22
2023-02-17T05:41:40.213Z,73744.19
2023-02-17T05:42:12.568Z,73742.19
2023-02-17T05:42:45.619Z,73748.19
2023-02-17T05:43:20.463Z,73746.19
2023-02-17T05:43:52.770Z,73744.19
2023-02-17T05:44:25.009Z,73736.22
2023-02-17T05:44:59.865Z,73746.19
2023-02-17T05:45:32.237Z,73742.19
2023-02-17T05:46:05.975Z,73744.19
2023-02-17T05:46:41.021Z,73740.22
2023-02-17T05:47:13.330Z,73746.19
2023-02-17T05:47:45.583Z,73742.19
2023-02-17T05:48:20.488Z,73744.19
2023-02-17T05:48:52.772Z,73744.19
2023-02-17T05:49:27.896Z,73752.19
2023-02-17T05:50:02.799Z,73744.19
2023-02-17T05:50:35.096Z,73744.19
2023-02-17T05:51:08.317Z,73740.22
2023-02-17T05:51:43.306Z,73748.19
2023-02-17T05:52:16.926Z,73748.19
2023-02-17T05:52:51.762Z,73746.19
2023-02-17T05:53:24.029Z,73744.19
2023-02-17T05:53:56.251Z,73748.19
2023-02-17T05:54:31.098Z,73744.19
2023-02-17T05:55:04.863Z,73754.19
2023-02-17T05:55:39.794Z,73744.19
2023-02-17T05:56:12.324Z,73744.19
2023-02-17T05:56:44.591Z,73744.19
2023-02-17T05:57:19.404Z,73742.19
2023-02-17T05:57:51.631Z,73744.19
2023-02-17T05:58:24.035Z,73746.19
2023-02-17T05:58:58.900Z,73744.19
2023-02-17T05:59:31.162Z,73740.22
2023-02-17T06:00:04.440Z,73752.19
2023-02-17T06:00:47.081Z,73750.19
2023-02-17T06:01:19.306Z,73740.22
2023-02-17T06:01:51.563Z,73748.19
2023-02-17T06:02:26.394Z,73756.19
2023-02-17T06:02:58.632Z,73752.19
2023-02-17T06:03:30.898Z,73756.19
2023-02-17T06:04:05.736Z,73752.19
2023-02-17T06:04:40.657Z,73750.19
2023-02-17T06:05:13.151Z,73752.19
2023-02-17T06:05:48.316Z,73754.19
2023-02-17T06:06:20.642Z,73756.19
2023-02-17T06:06:52.989Z,73748.19
2023-02-17T06:07:27.824Z,73760.16
2023-02-17T06:08:00.040Z,73758.19
2023-02-17T06:08:32.298Z,73752.19
2023-02-17T06:09:07.157Z,73760.16
2023-02-17T06:09:39.436Z,73758.19
2023-02-17T06:10:12.175Z,73756.19
2023-02-17T06:10:47.284Z,73752.19
2023-02-17T06:11:19.531Z,73752.19
2023-02-17T06:11:52.182Z,73754.19
2023-02-17T06:12:28.455Z,73756.19
2023-02-17T06:13:00.715Z,73756.19
2023-02-17T06:13:32.988Z,73758.19
2023-02-17T06:14:08.046Z,73746.19
2023-02-17T06:14:40.281Z,73752.19
2023-02-17T06:15:12.590Z,73748.19
2023-02-17T06:15:47.643Z,73748.19
2023-02-17T06:16:19.981Z,73748.19
2023-02-17T06:16:52.310Z,73748.19
2023-02-17T06:17:27.135Z,73754.19
2023-02-17T06:17:59.585Z,73752.19
2023-02-17T06:18:31.955Z,73746.19
2023-02-17T06:19:07.403Z,73752.19
2023-02-17T06:19:42.302Z,73748.19
2023-02-17T06:20:15.231Z,73748.19
2023-02-17T06:20:50.113Z,73744.19
2023-02-17T06:21:22.406Z,73744.19
2023-02-17T06:21:57.368Z,73740.22
2023-02-17T06:22:29.593Z,73742.19
2023-02-17T06:23:01.864Z,73752.19
2023-02-17T06:23:36.729Z,73750.19
2023-02-17T06:24:08.975Z,73752.19
2023-02-17T06:24:41.207Z,73746.19
2023-02-17T06:25:16.051Z,73748.19
2023-02-17T06:25:48.304Z,73748.19
2023-02-17T06:26:23.222Z,73744.19
2023-02-17T06:26:55.444Z,73748.19
2023-02-17T06:27:27.775Z,73756.19
2023-02-17T06:28:02.698Z,73752.19
2023-02-17T06:28:35.263Z,73750.19
2023-02-17T06:29:07.760Z,73752.19
2023-02-17T06:29:42.722Z,73748.19
2023-02-17T06:30:17.698Z,73750.19
2023-02-17T06:30:49.976Z,73752.19
2023-02-17T06:31:24.878Z,73748.19
2023-02-17T06:31:57.276Z,73748.19
2023-02-17T06:32:29.538Z,73752.19
2023-02-17T06:33:05.409Z,73752.19
2023-02-17T06:33:37.693Z,73756.19
2023-02-17T06:34:09.921Z,73752.19
2023-02-17T06:34:47.678Z,73760.16
2023-02-17T06:35:19.916Z,73756.19
2023-02-17T06:35:52.433Z,73758.19
2023-02-17T06:36:27.279Z,73748.19
2023-02-17T06:36:59.499Z,73756.19
2023-02-17T06:37:31.721Z,73756.19
2023-02-17T06:38:06.707Z,73756.19
2023-02-17T06:38:38.975Z,73754.19
2023-02-17T06:39:11.352Z,73760.16
2023-02-17T06:39:46.192Z,73752.19
2023-02-17T06:40:19.243Z,73760.16
2023-02-17T06:40:51.557Z,73760.16
2023-02-17T06:41:26.407Z,73764.16
2023-02-17T06:41:58.676Z,73768.16
2023-02-17T06:42:31.027Z,73768.16
2023-02-17T06:43:05.919Z,73772.16
2023-02-17T06:43:38.166Z,73772.16
2023-02-17T06:44:13.086Z,73772.16
2023-02-17T06:44:45.320Z,73762.16
2023-02-17T06:45:17.939Z,73764.16
2023-02-17T06:45:52.846Z,73768.16
2023-02-17T06:46:25.112Z,73760.16
2023-02-17T06:47:00.261Z,73760.16
2023-02-17T06:47:32.554Z,73760.16